Terminal Aerodrome Forecast
Issued by NWS Bismarck, ND

Home | Current Version | Previous Version | Text Only | Print | Product List | Glossary On
Versions: 1 2 3 4 5 6 7 8 9 10 11 12 13 14 15 16 17 18 19 20 21 22 23 24 25 26
543
FTUS43 KBIS 131738
TAFBIS
TAF
KBIS 131738Z 1318/1418 32018G27KT P6SM SCT018 OVC025
     FM140000 31011KT P6SM OVC020
     FM140500 28005KT P6SM -SHSN OVC020
     FM140900 30008KT 2SM -SN OVC015
     FM141500 33016G23KT 4SM -SN OVC018=

USA.gov is the U.S. government's official web portal to all federal, state and local government web resources and services.